Time;durP1;ratioP1;P1;durP2;ratioP2;P2;SDS_P1;SDS_P2;PMS_P1;PMS_P2;Temp;Humidity;BMP_temperature;BMP_pressure;BME280_temperature;BME280_humidity;BME280_pressure;Samples;Min_cycle;Max_cycle;Signal;HPM_P1;HPM_P2
2023/05/26 00:00:59;;;;;;;54.92;9.05;;;;;;;;;;4998887;28;20041;-66
2023/05/26 00:03:29;;;;;;;45.95;8.48;;;;;;;;;;5008691;28;20071;-66
2023/05/26 00:05:57;;;;;;;60.83;9.73;;;;;;;;;;5009183;28;20045;-66
2023/05/26 00:08:24;;;;;;;52.00;8.82;;;;;;;;;;4990938;28;20137;-66
2023/05/26 00:10:51;;;;;;;46.47;7.75;;;;;;;;;;4993700;28;20510;-66
2023/05/26 00:13:18;;;;;;;47.58;9.18;;;;;;;;;;5007761;28;20050;-66
2023/05/26 00:15:45;;;;;;;48.65;8.95;;;;;;;;;;4992584;28;20058;-68
2023/05/26 00:18:13;;;;;;;66.20;9.77;;;;;;;;;;4992510;28;20058;-68
2023/05/26 00:20:40;;;;;;;51.88;8.73;;;;;;;;;;5000250;28;20542;-66
2023/05/26 00:23:08;;;;;;;48.35;8.70;;;;;;;;;;5002547;28;20066;-67
2023/05/26 00:25:35;;;;;;;44.00;7.63;;;;;;;;;;5007908;28;20121;-66
2023/05/26 00:28:02;;;;;;;63.28;9.20;;;;;;;;;;4991205;28;20097;-66
2023/05/26 00:30:29;;;;;;;34.17;7.35;;;;;;;;;;5007306;28;20101;-68
2023/05/26 00:32:57;;;;;;;53.22;8.80;;;;;;;;;;5009453;28;20062;-69
2023/05/26 00:35:24;;;;;;;57.58;8.82;;;;;;;;;;4990597;28;20046;-65
2023/05/26 00:37:51;;;;;;;37.58;7.53;;;;;;;;;;4987432;28;20042;-66
2023/05/26 00:40:18;;;;;;;31.17;6.72;;;;;;;;;;4990835;28;20053;-66
2023/05/26 00:42:45;;;;;;;58.55;8.45;;;;;;;;;;4992297;28;20495;-68
2023/05/26 00:45:12;;;;;;;62.58;9.32;;;;;;;;;;4992681;28;20069;-66
2023/05/26 00:47:40;;;;;;;39.88;7.03;;;;;;;;;;4985330;28;20130;-69
2023/05/26 00:50:07;;;;;;;40.78;7.85;;;;;;;;;;5007022;28;20049;-68
2023/05/26 00:52:35;;;;;;;39.10;7.28;;;;;;;;;;4976087;28;20395;-65
2023/05/26 00:55:02;;;;;;;37.88;7.43;;;;;;;;;;5008490;28;20070;-66
2023/05/26 00:57:29;;;;;;;65.43;9.32;;;;;;;;;;4990115;28;20104;-67
2023/05/26 00:59:57;;;;;;;40.33;7.70;;;;;;;;;;5004564;28;20053;-69
2023/05/26 01:02:25;;;;;;;44.33;8.25;;;;;;;;;;4986036;28;20060;-65
2023/05/26 01:04:53;;;;;;;87.85;10.18;;;;;;;;;;4989736;28;20046;-65
2023/05/26 01:07:20;;;;;;;49.17;7.90;;;;;;;;;;5007879;28;20053;-64
2023/05/26 01:09:48;;;;;;;47.25;7.50;;;;;;;;;;4992249;28;20057;-65
2023/05/26 01:12:23;;;;;;;65.60;9.32;;;;;;;;;;4990243;28;20050;-67
2023/05/26 01:15:00;;;;;;;33.17;6.55;;;;;;;;;;4987243;28;20420;-65
2023/05/26 01:17:43;;;;;;;76.03;9.05;;;;;;;;;;4972262;28;20046;-66
2023/05/26 01:20:25;;;;;;;32.88;6.47;;;;;;;;;;5002478;28;20053;-65
2023/05/26 01:22:55;;;;;;;49.75;7.65;;;;;;;;;;5007053;28;20417;-66
2023/05/26 01:25:44;;;;;;;26.08;5.75;;;;;;;;;;4991905;28;20053;-65
2023/05/26 01:28:16;;;;;;;56.40;8.15;;;;;;;;;;5006844;28;20057;-66
2023/05/26 01:30:44;;;;;;;45.78;7.50;;;;;;;;;;4972218;28;20604;-65
2023/05/26 01:33:11;;;;;;;93.05;9.98;;;;;;;;;;5001392;28;20136;-68
2023/05/26 01:35:40;;;;;;;54.53;7.75;;;;;;;;;;4977766;28;20054;-67
2023/05/26 01:38:07;;;;;;;42.92;6.78;;;;;;;;;;4991594;28;20053;-67
2023/05/26 01:40:35;;;;;;;20.95;5.75;;;;;;;;;;4990736;28;20112;-66
2023/05/26 01:43:09;;;;;;;26.42;5.53;;;;;;;;;;5007611;28;20380;-66
2023/05/26 01:45:38;;;;;;;38.00;6.57;;;;;;;;;;5009053;28;20048;-66
2023/05/26 01:48:06;;;;;;;77.07;10.15;;;;;;;;;;5006543;28;20100;-66
2023/05/26 01:50:37;;;;;;;39.70;6.57;;;;;;;;;;4990568;28;20472;-68
2023/05/26 01:53:06;;;;;;;38.65;7.25;;;;;;;;;;5004190;28;20100;-67
2023/05/26 01:55:34;;;;;;;51.47;7.40;;;;;;;;;;5006863;28;20053;-66
2023/05/26 01:58:02;;;;;;;34.80;6.25;;;;;;;;;;5007254;28;20080;-65
2023/05/26 02:03:31;;;;;;;30.73;5.93;;;;;;;;;;5031983;23;20080;-71
2023/05/26 02:05:59;;;;;;;67.10;8.55;;;;;;;;;;5027969;28;20553;-72
2023/05/26 02:08:26;;;;;;;38.03;6.70;;;;;;;;;;5030401;28;20041;-70
2023/05/26 02:10:53;;;;;;;35.58;6.55;;;;;;;;;;5010297;28;20053;-72
2023/05/26 02:13:20;;;;;;;26.88;6.18;;;;;;;;;;5005691;28;20128;-68
2023/05/26 02:15:47;;;;;;;28.27;5.97;;;;;;;;;;5011985;28;20046;-69
2023/05/26 02:18:15;;;;;;;50.38;7.65;;;;;;;;;;5009338;28;20103;-70
2023/05/26 02:20:42;;;;;;;44.30;6.95;;;;;;;;;;5012308;28;20081;-68
2023/05/26 02:23:09;;;;;;;40.60;6.82;;;;;;;;;;5029068;28;20057;-68
2023/05/26 02:25:36;;;;;;;37.35;6.93;;;;;;;;;;5028345;28;20120;-70
2023/05/26 02:28:04;;;;;;;34.15;6.28;;;;;;;;;;5028989;28;20049;-69
2023/05/26 02:30:31;;;;;;;72.63;9.15;;;;;;;;;;5029215;28;20038;-70
2023/05/26 02:32:58;;;;;;;126.25;11.77;;;;;;;;;;5007691;28;20108;-72
2023/05/26 02:35:25;;;;;;;47.10;7.97;;;;;;;;;;5012433;28;20150;-70
2023/05/26 02:37:52;;;;;;;48.75;7.63;;;;;;;;;;5026489;28;20038;-69
2023/05/26 02:40:19;;;;;;;43.33;7.35;;;;;;;;;;5033828;28;20145;-72
2023/05/26 02:42:46;;;;;;;31.05;6.00;;;;;;;;;;5032602;28;20037;-71
2023/05/26 02:45:13;;;;;;;83.25;9.50;;;;;;;;;;5024919;28;20049;-70
2023/05/26 02:47:40;;;;;;;46.05;7.05;;;;;;;;;;5031825;28;20049;-70
2023/05/26 02:50:08;;;;;;;40.38;6.60;;;;;;;;;;5014991;28;20030;-72
2023/05/26 02:52:35;;;;;;;43.13;7.63;;;;;;;;;;5012497;28;20049;-72
2023/05/26 02:55:02;;;;;;;29.77;6.45;;;;;;;;;;5032772;28;20045;-74
2023/05/26 02:57:29;;;;;;;37.85;6.63;;;;;;;;;;5014369;28;20053;-70
2023/05/26 02:59:57;;;;;;;37.20;7.05;;;;;;;;;;5034490;28;20045;-70
2023/05/26 03:02:24;;;;;;;85.82;10.95;;;;;;;;;;5031597;28;20065;-70
2023/05/26 03:04:52;;;;;;;35.20;6.90;;;;;;;;;;5031868;28;20038;-69
2023/05/26 03:07:20;;;;;;;37.20;6.57;;;;;;;;;;4999319;28;20053;-69
2023/05/26 03:09:47;;;;;;;76.13;9.45;;;;;;;;;;5014245;28;20053;-71
2023/05/26 03:12:15;;;;;;;75.38;9.82;;;;;;;;;;5032807;28;20041;-70
2023/05/26 03:14:43;;;;;;;35.08;7.38;;;;;;;;;;5012649;28;20053;-68
2023/05/26 03:17:10;;;;;;;66.10;9.20;;;;;;;;;;5013959;28;20060;-69
2023/05/26 03:19:38;;;;;;;42.67;7.90;;;;;;;;;;5020372;28;20119;-72
2023/05/26 03:22:06;;;;;;;36.25;7.45;;;;;;;;;;5032252;28;20049;-70
2023/05/26 03:24:54;;;;;;;47.00;8.60;;;;;;;;;;5027076;28;20042;-73
2023/05/26 03:27:26;;;;;;;42.13;7.70;;;;;;;;;;5023684;28;20133;-70
2023/05/26 03:29:54;;;;;;;44.10;7.60;;;;;;;;;;5032336;28;20045;-70
2023/05/26 03:32:22;;;;;;;60.17;8.82;;;;;;;;;;5031595;28;20038;-70
2023/05/26 03:34:49;;;;;;;45.10;8.13;;;;;;;;;;5029734;28;20052;-70
2023/05/26 03:37:16;;;;;;;54.13;8.68;;;;;;;;;;5014014;28;20049;-69
2023/05/26 03:39:44;;;;;;;45.55;9.02;;;;;;;;;;5013385;28;20046;-69
2023/05/26 03:42:11;;;;;;;62.25;11.05;;;;;;;;;;5013785;28;20049;-71
2023/05/26 03:44:40;;;;;;;38.25;9.27;;;;;;;;;;5027928;28;20037;-69
2023/05/26 03:47:09;;;;;;;27.40;7.90;;;;;;;;;;5031877;28;20048;-68
2023/05/26 03:49:37;;;;;;;35.33;8.50;;;;;;;;;;5011296;28;20046;-68
2023/05/26 03:52:04;;;;;;;45.05;8.80;;;;;;;;;;5022379;28;20037;-68
2023/05/26 03:54:31;;;;;;;49.10;9.95;;;;;;;;;;5013917;28;20445;-73
2023/05/26 03:56:59;;;;;;;44.35;9.18;;;;;;;;;;5023443;28;20120;-71
2023/05/26 03:59:26;;;;;;;51.60;10.32;;;;;;;;;;5025367;28;20450;-69
2023/05/26 04:01:54;;;;;;;47.33;9.07;;;;;;;;;;5012833;28;20049;-69
2023/05/26 04:04:21;;;;;;;35.22;8.88;;;;;;;;;;5012818;28;20045;-70
2023/05/26 04:06:50;;;;;;;52.58;9.68;;;;;;;;;;5010256;28;20053;-69
2023/05/26 04:09:17;;;;;;;53.75;9.88;;;;;;;;;;5020527;28;20050;-69
2023/05/26 04:11:46;;;;;;;53.05;9.30;;;;;;;;;;5032601;28;20045;-70
2023/05/26 04:14:15;;;;;;;39.65;8.38;;;;;;;;;;5013275;28;20049;-70
2023/05/26 04:16:46;;;;;;;39.97;8.93;;;;;;;;;;5027634;28;20391;-69
2023/05/26 04:19:15;;;;;;;41.40;9.05;;;;;;;;;;5028786;28;20056;-70
2023/05/26 04:21:42;;;;;;;61.63;10.00;;;;;;;;;;5029061;28;20622;-71
2023/05/26 04:24:09;;;;;;;266.15;22.38;;;;;;;;;;5013431;28;20092;-69
2023/05/26 04:26:37;;;;;;;33.85;7.75;;;;;;;;;;5014670;28;20140;-70
2023/05/26 04:29:31;;;;;;;;;;;;;;;;;;4997923;28;20050;-71
2023/05/26 04:32:16;;;;;;;40.63;7.63;;;;;;;;;;5027624;28;20018;-72
2023/05/26 04:35:05;;;;;;;31.25;7.07;;;;;;;;;;5029647;28;20087;-71
2023/05/26 04:37:38;;;;;;;52.95;7.80;;;;;;;;;;5010992;28;20092;-70
2023/05/26 04:40:06;;;;;;;291.40;20.17;;;;;;;;;;5022924;28;20045;-72
2023/05/26 04:42:34;;;;;;;65.65;9.15;;;;;;;;;;5013557;28;20081;-73
2023/05/26 04:45:02;;;;;;;60.33;7.75;;;;;;;;;;5023305;28;20053;-69
2023/05/26 04:47:32;;;;;;;100.30;9.25;;;;;;;;;;5026390;28;20140;-70
2023/05/26 04:49:59;;;;;;;22.58;5.45;;;;;;;;;;5013850;28;20045;-69
2023/05/26 04:52:26;;;;;;;44.85;6.35;;;;;;;;;;5020460;28;20478;-68
2023/05/26 04:54:53;;;;;;;30.60;5.20;;;;;;;;;;5031223;28;20470;-69
2023/05/26 04:57:20;;;;;;;76.50;8.02;;;;;;;;;;5013048;28;20107;-69
2023/05/26 04:59:51;;;;;;;44.38;6.32;;;;;;;;;;5029232;28;20072;-69
2023/05/26 05:02:18;;;;;;;24.02;4.93;;;;;;;;;;5010342;28;20057;-74
2023/05/26 05:05:03;;;;;;;15.57;4.43;;;;;;;;;;5011900;28;20042;-68
2023/05/26 05:07:30;;;;;;;375.13;28.60;;;;;;;;;;5027789;28;20053;-69
2023/05/26 05:09:57;;;;;;;126.80;9.32;;;;;;;;;;5021429;28;20397;-67
2023/05/26 05:12:25;;;;;;;56.28;6.80;;;;;;;;;;5013283;28;20046;-68
2023/05/26 05:14:52;;;;;;;31.58;4.80;;;;;;;;;;5021586;28;20518;-71
2023/05/26 05:17:18;;;;;;;57.67;7.45;;;;;;;;;;5017837;28;20041;-69
2023/05/26 05:19:45;;;;;;;44.67;6.22;;;;;;;;;;5012500;28;20406;-69
2023/05/26 05:22:13;;;;;;;86.60;8.00;;;;;;;;;;5012043;28;20046;-70
2023/05/26 05:24:40;;;;;;;141.13;10.90;;;;;;;;;;5021383;28;20521;-69
2023/05/26 05:27:07;;;;;;;64.25;6.85;;;;;;;;;;5013335;28;20044;-69
2023/05/26 05:29:33;;;;;;;41.55;5.45;;;;;;;;;;5014380;28;20519;-72
2023/05/26 05:32:01;;;;;;;23.02;3.95;;;;;;;;;;5014250;28;20491;-70
2023/05/26 05:34:35;;;;;;;31.85;4.70;;;;;;;;;;5012187;28;20045;-70
2023/05/26 05:37:02;;;;;;;50.90;6.45;;;;;;;;;;5023241;28;20447;-72
2023/05/26 05:39:28;;;;;;;28.98;4.80;;;;;;;;;;5011326;28;20041;-77
2023/05/26 05:41:55;;;;;;;478.23;34.45;;;;;;;;;;5022279;28;20498;-70
2023/05/26 05:44:21;;;;;;;35.45;5.30;;;;;;;;;;5023572;28;20184;-69
2023/05/26 05:46:48;;;;;;;118.13;11.80;;;;;;;;;;5012562;28;20045;-74
2023/05/26 05:49:19;;;;;;;45.47;5.53;;;;;;;;;;5028325;28;20064;-71
2023/05/26 05:51:48;;;;;;;63.22;6.80;;;;;;;;;;5004368;28;20045;-71
2023/05/26 05:54:16;;;;;;;75.25;8.13;;;;;;;;;;5012045;28;20111;-70
2023/05/26 05:56:44;;;;;;;82.63;8.35;;;;;;;;;;5012467;28;20053;-70
2023/05/26 05:59:12;;;;;;;82.68;7.80;;;;;;;;;;5012752;28;20495;-70
2023/05/26 06:01:39;;;;;;;119.32;11.60;;;;;;;;;;5012109;28;20041;-70
2023/05/26 06:04:07;;;;;;;49.53;7.85;;;;;;;;;;5011635;28;20088;-70
2023/05/26 06:06:33;;;;;;;30.77;4.90;;;;;;;;;;5025144;28;20056;-68
2023/05/26 06:09:02;;;;;;;86.00;8.93;;;;;;;;;;5012594;28;20375;-71
2023/05/26 06:11:29;;;;;;;34.30;6.82;;;;;;;;;;5029948;28;20069;-69
2023/05/26 06:13:56;;;;;;;35.63;5.32;;;;;;;;;;5011275;28;20046;-69
2023/05/26 06:16:22;;;;;;;42.17;6.07;;;;;;;;;;5008423;28;20053;-71
2023/05/26 06:18:50;;;;;;;45.95;6.35;;;;;;;;;;5012664;28;20053;-68
2023/05/26 06:21:17;;;;;;;71.80;8.52;;;;;;;;;;5010076;28;20505;-69
2023/05/26 06:23:47;;;;;;;498.98;33.17;;;;;;;;;;5012652;28;20041;-70
2023/05/26 06:26:14;;;;;;;33.90;5.15;;;;;;;;;;5030136;28;20050;-69
2023/05/26 06:28:41;;;;;;;1143.65;94.80;;;;;;;;;;5028872;28;20124;-70
2023/05/26 06:31:07;;;;;;;258.17;19.02;;;;;;;;;;5019067;28;20064;-71
2023/05/26 06:33:40;;;;;;;37.50;5.60;;;;;;;;;;5010873;28;20049;-70
2023/05/26 06:36:08;;;;;;;70.75;8.13;;;;;;;;;;5012568;28;20152;-71
2023/05/26 06:38:35;;;;;;;286.35;19.88;;;;;;;;;;5028586;28;20045;-71
2023/05/26 06:41:06;;;;;;;360.48;25.58;;;;;;;;;;5012271;28;20045;-70
2023/05/26 06:43:34;;;;;;;148.65;15.43;;;;;;;;;;5003243;28;20041;-69
2023/05/26 06:46:03;;;;;;;466.00;30.15;;;;;;;;;;5026299;28;20491;-70
2023/05/26 06:48:30;;;;;;;1471.63;119.93;;;;;;;;;;5012186;28;20573;-71
2023/05/26 06:51:22;;;;;;;409.75;25.92;;;;;;;;;;4986999;28;20058;-69
2023/05/26 06:53:49;;;;;;;44.83;6.07;;;;;;;;;;4985320;28;20053;-69
2023/05/26 06:56:17;;;;;;;127.20;13.10;;;;;;;;;;4971318;28;20054;-73
2023/05/26 06:58:43;;;;;;;47.05;6.05;;;;;;;;;;4985909;28;20046;-69
2023/05/26 07:01:10;;;;;;;428.98;28.88;;;;;;;;;;4955843;28;20068;-71
2023/05/26 07:03:39;;;;;;;92.68;8.90;;;;;;;;;;4987674;28;20054;-71
2023/05/26 07:06:06;;;;;;;444.67;35.63;;;;;;;;;;4988731;28;20134;-74
2023/05/26 07:08:36;;;;;;;1032.55;80.68;;;;;;;;;;4987518;28;20495;-71
2023/05/26 07:11:26;;;;;;;54.03;6.80;;;;;;;;;;4978490;28;20058;-71
2023/05/26 07:13:57;;;;;;;427.73;27.77;;;;;;;;;;4979172;28;20134;-71
2023/05/26 07:16:24;;;;;;;83.78;8.77;;;;;;;;;;4971736;28;20173;-70
2023/05/26 07:18:51;;;;;;;91.45;8.95;;;;;;;;;;4980361;28;20082;-70
2023/05/26 07:21:19;;;;;;;699.83;50.13;;;;;;;;;;4971652;28;20050;-70
2023/05/26 07:23:47;;;;;;;291.77;22.42;;;;;;;;;;4972734;28;20197;-70
2023/05/26 07:26:14;;;;;;;269.67;20.08;;;;;;;;;;4990574;28;20047;-71
2023/05/26 07:28:42;;;;;;;151.13;15.10;;;;;;;;;;5004380;28;20054;-70
2023/05/26 07:31:08;;;;;;;664.97;49.25;;;;;;;;;;5032999;28;20479;-71
2023/05/26 07:33:38;;;;;;;385.92;28.55;;;;;;;;;;5015089;28;20053;-72
2023/05/26 07:36:05;;;;;;;76.30;9.13;;;;;;;;;;5033307;28;20049;-68
2023/05/26 07:38:32;;;;;;;37.78;6.05;;;;;;;;;;5021902;28;20076;-71
2023/05/26 07:40:59;;;;;;;45.30;6.63;;;;;;;;;;5031750;28;20437;-70
2023/05/26 07:43:25;;;;;;;20.83;5.40;;;;;;;;;;5032418;28;20091;-69
2023/05/26 07:45:52;;;;;;;361.25;27.85;;;;;;;;;;5032483;28;20054;-70
2023/05/26 07:48:19;;;;;;;78.32;8.95;;;;;;;;;;5021909;28;20050;-72
2023/05/26 07:50:47;;;;;;;34.67;5.90;;;;;;;;;;5033913;28;20115;-70
2023/05/26 07:53:14;;;;;;;36.08;5.78;;;;;;;;;;5030623;28;20064;-72
2023/05/26 07:55:40;;;;;;;101.90;10.63;;;;;;;;;;5031182;28;20404;-70
2023/05/26 07:58:09;;;;;;;288.15;19.92;;;;;;;;;;5013340;28;20056;-71
2023/05/26 08:00:37;;;;;;;70.38;8.32;;;;;;;;;;5031366;28;20045;-70
2023/05/26 08:03:03;;;;;;;178.48;14.52;;;;;;;;;;5033088;28;20132;-74
2023/05/26 08:05:30;;;;;;;41.20;6.00;;;;;;;;;;5009118;28;20038;-73
2023/05/26 08:07:57;;;;;;;270.20;22.23;;;;;;;;;;5014700;28;20045;-70
2023/05/26 08:10:24;;;;;;;295.10;23.65;;;;;;;;;;5031945;28;20041;-72
2023/05/26 08:12:54;;;;;;;97.20;8.75;;;;;;;;;;5013197;28;20049;-71
2023/05/26 08:15:21;;;;;;;467.35;35.55;;;;;;;;;;5013182;28;20069;-70
2023/05/26 08:17:48;;;;;;;338.98;24.17;;;;;;;;;;5033640;28;20056;-70
2023/05/26 08:20:15;;;;;;;87.35;8.63;;;;;;;;;;5024200;28;20049;-70
2023/05/26 08:22:43;;;;;;;37.42;4.90;;;;;;;;;;5030786;28;20059;-71
2023/05/26 08:25:09;;;;;;;233.57;19.20;;;;;;;;;;5031228;28;20049;-70
2023/05/26 08:27:36;;;;;;;42.13;6.18;;;;;;;;;;5030952;28;20411;-70
2023/05/26 08:30:03;;;;;;;312.65;25.50;;;;;;;;;;5012549;28;20395;-71
2023/05/26 08:32:29;;;;;;;53.47;6.20;;;;;;;;;;5032701;28;20052;-69
2023/05/26 08:34:56;;;;;;;335.67;20.58;;;;;;;;;;5031349;28;20112;-71
2023/05/26 08:37:23;;;;;;;156.25;15.32;;;;;;;;;;5012060;28;20485;-69
2023/05/26 08:39:49;;;;;;;44.90;6.28;;;;;;;;;;5031019;28;20466;-69
2023/05/26 08:42:19;;;;;;;84.10;9.15;;;;;;;;;;5031635;28;20037;-80
2023/05/26 08:44:58;;;;;;;65.95;8.77;;;;;;;;;;5031291;28;20502;-70
2023/05/26 08:47:26;;;;;;;53.85;6.88;;;;;;;;;;5030296;28;20073;-71
2023/05/26 08:49:55;;;;;;;63.08;8.43;;;;;;;;;;5030886;28;20103;-72
2023/05/26 08:52:22;;;;;;;36.72;5.75;;;;;;;;;;5031137;28;20049;-69
2023/05/26 08:54:49;;;;;;;41.10;6.07;;;;;;;;;;5030602;28;20046;-69
2023/05/26 08:57:18;;;;;;;74.70;8.57;;;;;;;;;;5013518;28;20490;-72
2023/05/26 08:59:48;;;;;;;50.97;6.65;;;;;;;;;;5007214;28;20048;-70
2023/05/26 09:02:15;;;;;;;59.83;6.35;;;;;;;;;;5013721;28;20092;-69
2023/05/26 09:04:44;;;;;;;41.10;6.47;;;;;;;;;;5012446;28;20099;-71
2023/05/26 09:07:11;;;;;;;43.03;6.25;;;;;;;;;;5030788;28;20041;-70
2023/05/26 09:09:40;;;;;;;341.42;25.75;;;;;;;;;;5028256;28;20037;-71
2023/05/26 09:12:11;;;;;;;64.70;8.38;;;;;;;;;;5031374;28;20540;-70
2023/05/26 09:14:38;;;;;;;34.97;5.57;;;;;;;;;;5023803;28;20124;-71
2023/05/26 09:17:05;;;;;;;47.60;6.07;;;;;;;;;;5029466;28;20079;-72
2023/05/26 09:19:33;;;;;;;30.15;5.30;;;;;;;;;;5030340;28;20076;-70
2023/05/26 09:22:06;;;;;;;30.80;5.28;;;;;;;;;;5030701;28;20076;-71
2023/05/26 09:24:49;;;;;;;32.67;5.22;;;;;;;;;;5013940;28;20075;-70
2023/05/26 09:27:17;;;;;;;116.45;11.98;;;;;;;;;;5030999;28;20099;-74
2023/05/26 09:29:48;;;;;;;533.00;40.03;;;;;;;;;;5023309;28;20055;-68
2023/05/26 09:32:15;;;;;;;39.00;5.95;;;;;;;;;;5029666;28;20045;-70
2023/05/26 09:34:42;;;;;;;38.60;6.50;;;;;;;;;;5020771;28;20045;-71
2023/05/26 09:37:09;;;;;;;41.00;5.72;;;;;;;;;;5029218;28;20068;-70
2023/05/26 09:39:36;;;;;;;464.17;45.53;;;;;;;;;;5012062;28;20037;-70
2023/05/26 09:42:09;;;;;;;23.92;6.07;;;;;;;;;;5031644;28;20077;-76
2023/05/26 09:44:35;;;;;;;37.97;6.43;;;;;;;;;;5011145;28;20096;-69
2023/05/26 09:47:02;;;;;;;135.98;10.65;;;;;;;;;;5011696;28;20057;-71
2023/05/26 09:49:31;;;;;;;128.52;10.52;;;;;;;;;;5018836;28;20049;-70
2023/05/26 09:51:57;;;;;;;26.88;4.70;;;;;;;;;;5030547;28;20045;-70
2023/05/26 09:54:38;;;;;;;71.15;6.57;;;;;;;;;;5027278;28;20575;-70
2023/05/26 09:57:09;;;;;;;60.80;7.03;;;;;;;;;;5031081;28;20049;-76
2023/05/26 09:59:44;;;;;;;38.92;6.05;;;;;;;;;;5031999;28;20045;-70
2023/05/26 10:02:29;;;;;;;457.60;34.83;;;;;;;;;;5028952;28;20049;-70
2023/05/26 10:04:56;;;;;;;57.17;5.68;;;;;;;;;;5029567;28;20041;-73
2023/05/26 10:07:23;;;;;;;89.72;7.90;;;;;;;;;;5027543;28;20107;-69
2023/05/26 10:09:50;;;;;;;89.60;8.68;;;;;;;;;;5026642;28;20041;-69
2023/05/26 10:12:17;;;;;;;144.45;14.68;;;;;;;;;;5029552;28;20127;-72
2023/05/26 10:14:43;;;;;;;25.98;4.78;;;;;;;;;;5031587;28;20045;-72
2023/05/26 10:17:10;;;;;;;37.78;6.78;;;;;;;;;;5029905;28;20041;-70
2023/05/26 10:19:37;;;;;;;576.05;43.15;;;;;;;;;;5028857;28;20065;-70
2023/05/26 10:22:06;;;;;;;32.58;5.15;;;;;;;;;;5029316;28;20045;-69
2023/05/26 10:24:37;;;;;;;50.55;6.50;;;;;;;;;;5028389;28;20053;-70
2023/05/26 10:27:05;;;;;;;528.03;37.63;;;;;;;;;;5030458;28;20125;-72
2023/05/26 10:29:36;;;;;;;40.22;5.80;;;;;;;;;;5030789;28;20487;-72
2023/05/26 10:32:03;;;;;;;61.35;7.07;;;;;;;;;;5029582;28;20044;-70
2023/05/26 10:34:38;;;;;;;56.38;7.15;;;;;;;;;;5028634;28;20065;-72
2023/05/26 10:37:15;;;;;;;139.63;12.35;;;;;;;;;;5020290;28;20037;-74
2023/05/26 10:39:42;;;;;;;34.08;5.45;;;;;;;;;;5029612;28;20041;-70
2023/05/26 10:42:17;;;;;;;131.45;11.85;;;;;;;;;;5029990;28;20073;-71
2023/05/26 10:44:44;;;;;;;25.98;4.35;;;;;;;;;;5013161;28;20100;-70
2023/05/26 10:47:15;;;;;;;29.52;4.57;;;;;;;;;;5027207;28;20049;-71
2023/05/26 10:49:50;;;;;;;134.20;9.32;;;;;;;;;;5029719;28;20037;-70
2023/05/26 10:52:17;;;;;;;323.77;24.85;;;;;;;;;;5010747;28;20057;-70
2023/05/26 10:54:44;;;;;;;41.42;6.10;;;;;;;;;;5029600;28;20063;-70
2023/05/26 10:57:33;;;;;;;83.95;9.57;;;;;;;;;;5027131;28;20881;-70
2023/05/26 11:00:20;;;;;;;301.77;24.25;;;;;;;;;;5032944;28;20053;-71
2023/05/26 11:02:47;;;;;;;37.10;5.07;;;;;;;;;;5024961;28;20123;-73
2023/05/26 11:05:30;;;;;;;61.40;5.78;;;;;;;;;;5032632;28;20045;-71
2023/05/26 11:07:57;;;;;;;26.55;4.28;;;;;;;;;;5013544;28;20045;-71
2023/05/26 11:10:24;;;;;;;324.85;21.05;;;;;;;;;;5032586;28;20487;-69
2023/05/26 11:12:54;;;;;;;34.70;5.68;;;;;;;;;;5015079;28;20049;-73
2023/05/26 11:15:28;;;;;;;63.78;7.07;;;;;;;;;;5023897;28;20469;-71
2023/05/26 11:18:05;;;;;;;57.58;6.35;;;;;;;;;;5033898;28;20050;-70
2023/05/26 11:20:32;;;;;;;51.42;5.57;;;;;;;;;;5025510;28;20041;-70
2023/05/26 11:22:59;;;;;;;64.53;7.97;;;;;;;;;;5032277;28;20042;-71
2023/05/26 11:25:26;;;;;;;35.85;4.88;;;;;;;;;;5032110;28;20506;-72
2023/05/26 11:27:53;;;;;;;34.83;5.10;;;;;;;;;;5015147;28;20049;-68
2023/05/26 11:30:20;;;;;;;171.90;12.73;;;;;;;;;;5022621;28;20503;-71
2023/05/26 11:32:47;;;;;;;56.13;6.22;;;;;;;;;;5034006;28;20041;-70
2023/05/26 11:35:25;;;;;;;35.70;5.05;;;;;;;;;;5022024;28;20053;-72
2023/05/26 11:37:52;;;;;;;47.28;5.68;;;;;;;;;;5031404;28;20038;-72
2023/05/26 11:40:18;;;;;;;33.10;4.68;;;;;;;;;;5014148;28;20049;-72
2023/05/26 11:42:45;;;;;;;40.00;5.07;;;;;;;;;;5014622;28;20045;-72
2023/05/26 11:45:12;;;;;;;133.38;10.98;;;;;;;;;;5029742;28;20053;-71
2023/05/26 11:47:39;;;;;;;48.40;5.28;;;;;;;;;;5015902;28;20049;-77
2023/05/26 11:50:10;;;;;;;49.42;6.22;;;;;;;;;;5032086;28;20042;-72
2023/05/26 11:52:47;;;;;;;37.55;5.65;;;;;;;;;;5014446;28;20557;-70
2023/05/26 11:55:15;;;;;;;44.50;5.22;;;;;;;;;;5029410;28;20474;-70
2023/05/26 11:57:44;;;;;;;75.75;7.65;;;;;;;;;;5032725;28;20048;-71
2023/05/26 12:00:18;;;;;;;77.25;9.10;;;;;;;;;;5032457;28;20045;-73
2023/05/26 12:02:45;;;;;;;121.88;10.70;;;;;;;;;;5020952;28;20080;-72
2023/05/26 12:05:26;;;;;;;34.72;5.07;;;;;;;;;;5032496;28;20487;-71
2023/05/26 12:08:02;;;;;;;67.53;7.03;;;;;;;;;;5021093;28;20050;-70
2023/05/26 12:10:30;;;;;;;59.80;7.40;;;;;;;;;;5029097;28;20049;-70
2023/05/26 12:12:56;;;;;;;22.08;3.95;;;;;;;;;;5020589;28;20411;-71
2023/05/26 12:15:23;;;;;;;205.02;16.30;;;;;;;;;;5013826;28;20080;-68
2023/05/26 12:17:51;;;;;;;46.50;6.00;;;;;;;;;;5033029;28;20047;-71
2023/05/26 12:20:18;;;;;;;41.85;4.70;;;;;;;;;;5012896;28;20042;-71
2023/05/26 12:23:08;;;;;;;42.03;4.95;;;;;;;;;;5028776;28;20112;-70
2023/05/26 12:25:35;;;;;;;39.67;4.55;;;;;;;;;;5031167;28;20075;-72
2023/05/26 12:28:01;;;;;;;47.72;4.60;;;;;;;;;;5010608;28;20053;-75
2023/05/26 12:30:28;;;;;;;260.85;18.00;;;;;;;;;;5030636;28;20058;-70
2023/05/26 12:33:13;;;;;;;60.47;7.22;;;;;;;;;;5030980;28;20077;-72
2023/05/26 12:35:40;;;;;;;52.58;5.60;;;;;;;;;;5031744;28;20415;-69
2023/05/26 12:38:11;;;;;;;19.35;3.90;;;;;;;;;;5029743;28;20060;-73
2023/05/26 12:40:37;;;;;;;43.97;5.00;;;;;;;;;;5012968;28;20045;-71
2023/05/26 12:43:05;;;;;;;27.98;4.18;;;;;;;;;;5014329;28;20418;-70
2023/05/26 12:45:31;;;;;;;12.98;2.80;;;;;;;;;;5012615;28;20037;-72
2023/05/26 12:47:58;;;;;;;74.70;6.70;;;;;;;;;;5032468;28;20494;-71
2023/05/26 12:50:25;;;;;;;322.67;27.17;;;;;;;;;;5017409;28;20494;-69
2023/05/26 12:52:51;;;;;;;45.35;5.53;;;;;;;;;;5011876;28;20442;-74
2023/05/26 12:55:21;;;;;;;82.30;7.90;;;;;;;;;;5030326;28;20502;-71
2023/05/26 12:57:48;;;;;;;55.20;5.43;;;;;;;;;;5026584;28;20034;-78
2023/05/26 13:00:15;;;;;;;54.47;5.45;;;;;;;;;;5031578;28;20396;-71
2023/05/26 13:02:41;;;;;;;33.13;4.15;;;;;;;;;;5014101;28;20544;-70
2023/05/26 13:05:08;;;;;;;314.95;20.77;;;;;;;;;;5030703;28;20438;-71
2023/05/26 13:07:36;;;;;;;28.73;3.83;;;;;;;;;;5031029;28;20045;-72
2023/05/26 13:10:03;;;;;;;51.47;3.95;;;;;;;;;;5001295;28;20491;-73
2023/05/26 13:12:30;;;;;;;87.43;7.60;;;;;;;;;;5024427;28;20047;-74
2023/05/26 13:14:58;;;;;;;70.90;8.00;;;;;;;;;;5014767;28;20037;-71
2023/05/26 13:17:25;;;;;;;29.80;3.88;;;;;;;;;;5011817;28;20050;-70
2023/05/26 13:19:52;;;;;;;77.70;6.35;;;;;;;;;;5029557;28;20049;-70
2023/05/26 13:22:19;;;;;;;81.88;6.97;;;;;;;;;;5031062;28;20053;-72
2023/05/26 13:24:46;;;;;;;39.53;4.72;;;;;;;;;;5022403;28;20045;-74
2023/05/26 13:27:13;;;;;;;90.20;8.02;;;;;;;;;;5030887;28;20037;-71
2023/05/26 13:29:40;;;;;;;62.83;5.53;;;;;;;;;;5030925;28;20120;-70
2023/05/26 13:32:07;;;;;;;33.88;4.40;;;;;;;;;;5018525;28;20041;-73
2023/05/26 13:34:34;;;;;;;121.32;10.15;;;;;;;;;;5029771;28;20312;-70
2023/05/26 13:37:00;;;;;;;34.72;4.78;;;;;;;;;;5011383;28;20057;-71
2023/05/26 13:39:27;;;;;;;37.85;4.78;;;;;;;;;;5028980;28;20045;-70
2023/05/26 13:41:54;;;;;;;37.78;4.43;;;;;;;;;;5014250;28;20289;-70
2023/05/26 13:44:20;;;;;;;37.60;4.65;;;;;;;;;;5029014;28;20037;-71
2023/05/26 13:46:47;;;;;;;91.50;7.65;;;;;;;;;;5019132;28;20061;-72
2023/05/26 13:49:13;;;;;;;44.80;5.15;;;;;;;;;;5029248;28;20045;-70
2023/05/26 13:51:40;;;;;;;84.38;7.32;;;;;;;;;;5027598;28;20037;-72
2023/05/26 13:54:07;;;;;;;203.18;15.70;;;;;;;;;;5009092;28;20053;-73
2023/05/26 13:56:34;;;;;;;58.05;6.25;;;;;;;;;;5030073;28;20092;-70
2023/05/26 13:59:01;;;;;;;57.70;6.53;;;;;;;;;;5020041;28;20054;-70
2023/05/26 14:01:29;;;;;;;122.72;10.05;;;;;;;;;;5011412;28;20049;-75
2023/05/26 14:03:58;;;;;;;62.90;5.82;;;;;;;;;;5028947;28;20151;-71
2023/05/26 14:06:25;;;;;;;89.47;7.97;;;;;;;;;;5030054;28;20060;-69
2023/05/26 14:08:51;;;;;;;81.18;6.97;;;;;;;;;;5031888;28;20136;-69
2023/05/26 14:11:18;;;;;;;47.47;4.63;;;;;;;;;;5029863;28;20108;-73
2023/05/26 14:13:45;;;;;;;40.60;4.78;;;;;;;;;;5029677;28;20075;-70
2023/05/26 14:16:11;;;;;;;42.33;5.18;;;;;;;;;;5029384;28;20072;-71
2023/05/26 14:18:38;;;;;;;38.28;4.70;;;;;;;;;;5029777;28;20073;-76
2023/05/26 14:21:25;;;;;;;66.78;6.75;;;;;;;;;;5028841;28;20045;-70
2023/05/26 14:24:11;;;;;;;235.15;17.52;;;;;;;;;;5027194;28;20133;-74
2023/05/26 14:26:39;;;;;;;30.33;3.83;;;;;;;;;;5030133;28;20536;-71
2023/05/26 14:29:06;;;;;;;31.70;4.05;;;;;;;;;;5029538;28;20086;-70
2023/05/26 14:31:32;;;;;;;223.05;17.15;;;;;;;;;;5029534;28;20080;-71
2023/05/26 14:34:00;;;;;;;127.97;11.82;;;;;;;;;;5030919;28;20477;-70
2023/05/26 14:36:26;;;;;;;144.43;10.52;;;;;;;;;;5015592;28;20064;-73